Time;durP1;ratioP1;P1;durP2;ratioP2;P2;SDS_P1;SDS_P2;PMS_P1;PMS_P2;Temp;Humidity;BMP_temperature;BMP_pressure;BME280_temperature;BME280_humidity;BME280_pressure;Samples;Min_cycle;Max_cycle;Signal;HPM_P1;HPM_P2
2022/07/20 00:01:23;;;;;;;2.85;2.42;;;27.50;31.90;;;;;;5022533;28;20433;-49
2022/07/20 00:03:50;;;;;;;4.38;2.55;;;27.50;31.70;;;;;;5024765;28;20053;-47
2022/07/20 00:06:18;;;;;;;4.13;2.60;;;27.40;31.70;;;;;;5021473;28;20053;-48
2022/07/20 00:11:31;;;;;;;8.18;2.85;;;27.40;31.60;;;;;;5030625;28;20745;-48
2022/07/20 00:14:01;;;;;;;6.63;2.40;;;27.40;31.80;;;;;;5023721;28;20053;-47
2022/07/20 00:16:32;;;;;;;4.97;2.80;;;27.40;31.70;;;;;;5020348;28;20076;-47
2022/07/20 00:19:00;;;;;;;6.90;2.80;;;27.30;31.60;;;;;;5022139;28;20062;-46
2022/07/20 00:21:27;;;;;;;4.43;2.53;;;27.30;31.50;;;;;;5024396;28;20058;-49
2022/07/20 00:23:55;;;;;;;4.72;2.65;;;27.30;31.80;;;;;;5024731;28;20053;-48
2022/07/20 00:26:23;;;;;;;7.53;2.30;;;27.30;31.70;;;;;;5020739;28;20421;-48
2022/07/20 00:28:52;;;;;;;3.45;2.38;;;27.30;31.90;;;;;;5024560;28;20533;-46
2022/07/20 00:31:20;;;;;;;7.63;3.20;;;27.30;31.80;;;;;;5023643;28;20080;-51
2022/07/20 00:33:48;;;;;;;5.28;2.83;;;27.30;31.60;;;;;;5023410;28;20054;-48
2022/07/20 00:36:17;;;;;;;3.75;2.60;;;27.30;31.60;;;;;;5021110;28;20381;-46
2022/07/20 00:38:44;;;;;;;4.35;2.80;;;27.20;31.60;;;;;;5021841;28;20045;-50
2022/07/20 00:41:12;;;;;;;5.25;2.63;;;27.20;31.70;;;;;;5024653;28;20057;-47
2022/07/20 00:44:01;;;;;;;4.80;2.35;;;27.30;31.70;;;;;;5023308;28;20053;-47
2022/07/20 00:46:31;;;;;;;4.78;2.40;;;27.20;31.70;;;;;;5018543;28;20064;-48
2022/07/20 00:48:58;;;;;;;3.08;2.53;;;27.20;31.60;;;;;;5024139;28;20064;-46
2022/07/20 00:51:26;;;;;;;5.50;2.65;;;27.20;31.60;;;;;;5021094;28;20065;-48
2022/07/20 00:53:55;;;;;;;4.75;2.50;;;27.20;31.50;;;;;;5024535;28;20061;-47
2022/07/20 00:56:23;;;;;;;7.20;3.00;;;27.20;31.40;;;;;;5020343;28;20064;-49
2022/07/20 00:58:50;;;;;;;6.70;3.00;;;27.20;31.60;;;;;;5022296;28;20045;-47
2022/07/20 01:01:20;;;;;;;5.05;2.70;;;27.10;31.40;;;;;;5020592;28;20060;-48
2022/07/20 01:03:48;;;;;;;6.60;2.97;;;27.10;31.30;;;;;;5021978;28;20072;-46
2022/07/20 01:06:16;;;;;;;5.72;2.78;;;27.10;31.40;;;;;;5018963;28;20076;-48
2022/07/20 01:08:43;;;;;;;6.13;3.05;;;27.10;31.40;;;;;;5023578;28;20068;-49
2022/07/20 01:11:11;;;;;;;3.70;2.38;;;27.10;31.30;;;;;;5024061;28;20053;-50
2022/07/20 01:13:38;;;;;;;3.75;2.70;;;27.10;31.30;;;;;;5021588;28;20049;-51
2022/07/20 01:16:06;;;;;;;7.47;2.78;;;27.10;31.30;;;;;;5018219;28;20057;-47
2022/07/20 01:18:35;;;;;;;8.13;2.60;;;27.10;31.40;;;;;;5021669;28;20421;-46
2022/07/20 01:21:04;;;;;;;5.75;2.80;;;27.10;31.40;;;;;;5022079;28;20522;-50
2022/07/20 01:23:32;;;;;;;5.22;2.67;;;27.10;31.40;;;;;;5023149;28;20064;-48
2022/07/20 01:26:00;;;;;;;7.55;3.08;;;27.10;31.30;;;;;;5018062;28;20049;-47
2022/07/20 01:28:30;;;;;;;5.40;2.67;;;27.10;31.40;;;;;;5022946;28;20064;-48
2022/07/20 01:30:58;;;;;;;5.25;2.63;;;27.10;31.40;;;;;;5022045;28;20053;-47
2022/07/20 01:33:26;;;;;;;7.40;2.70;;;27.10;31.30;;;;;;5022132;28;20482;-46
2022/07/20 01:35:53;;;;;;;5.05;2.47;;;27.00;31.30;;;;;;5017664;28;20057;-48
2022/07/20 01:38:22;;;;;;;9.00;2.53;;;27.00;31.30;;;;;;5018822;28;20053;-46
2022/07/20 01:40:50;;;;;;;4.50;2.65;;;27.00;31.20;;;;;;5018854;28;20061;-46
2022/07/20 01:43:17;;;;;;;11.02;2.85;;;27.00;31.20;;;;;;5022912;28;20060;-49
2022/07/20 01:45:44;;;;;;;10.40;2.72;;;27.00;31.20;;;;;;5015466;28;20058;-50
2022/07/20 01:48:12;;;;;;;4.50;2.40;;;27.00;31.50;;;;;;5022065;28;20053;-47
2022/07/20 01:50:40;;;;;;;3.92;2.20;;;27.00;31.60;;;;;;5019514;28;20513;-47
2022/07/20 01:53:08;;;;;;;5.90;2.58;;;27.00;31.70;;;;;;5022423;28;20064;-49
2022/07/20 01:55:37;;;;;;;3.72;2.53;;;27.00;31.70;;;;;;5019738;28;20060;-49
2022/07/20 01:58:04;;;;;;;7.88;3.00;;;27.00;31.70;;;;;;5019638;28;20045;-50
2022/07/20 02:00:32;;;;;;;3.33;2.45;;;26.90;31.70;;;;;;5022701;28;20057;-47
2022/07/20 02:03:00;;;;;;;3.95;2.92;;;26.90;32.00;;;;;;5020278;28;20053;-50
2022/07/20 02:05:27;;;;;;;3.67;2.63;;;26.90;31.90;;;;;;5019019;28;20064;-48
2022/07/20 02:07:54;;;;;;;5.15;2.30;;;26.90;32.00;;;;;;5022764;28;20061;-46
2022/07/20 02:10:22;;;;;;;4.25;2.22;;;26.90;32.10;;;;;;5023324;28;20053;-49
2022/07/20 02:12:51;;;;;;;7.28;3.00;;;26.90;32.10;;;;;;5020189;28;20060;-48
2022/07/20 02:18:00;;;;;;;6.25;3.00;;;26.90;32.40;;;;;;5019678;28;20045;-49
2022/07/20 02:20:27;;;;;;;8.50;3.05;;;26.80;32.20;;;;;;5022892;28;20053;-46
2022/07/20 02:22:54;;;;;;;3.28;2.50;;;26.80;32.00;;;;;;5022550;28;20495;-52
2022/07/20 02:25:22;;;;;;;6.05;2.72;;;26.80;31.90;;;;;;5019944;28;20057;-49
2022/07/20 02:27:51;;;;;;;6.40;2.45;;;26.80;32.20;;;;;;5019536;28;20408;-51
2022/07/20 02:30:18;;;;;;;3.97;2.80;;;26.70;32.20;;;;;;5020274;28;20057;-51
2022/07/20 02:32:45;;;;;;;4.63;2.83;;;26.70;32.20;;;;;;5021045;28;20521;-48
2022/07/20 02:35:13;;;;;;;6.25;2.97;;;26.70;32.40;;;;;;5020905;28;20045;-46
2022/07/20 02:37:40;;;;;;;5.07;2.85;;;26.70;32.50;;;;;;5018411;28;20064;-49
2022/07/20 02:40:10;;;;;;;6.30;2.75;;;26.70;32.60;;;;;;5020083;28;20064;-48
2022/07/20 02:42:37;;;;;;;5.53;3.00;;;26.60;32.80;;;;;;5022334;28;20062;-50
2022/07/20 02:45:07;;;;;;;7.60;3.20;;;26.60;32.80;;;;;;5018659;28;20056;-48
2022/07/20 02:47:43;;;;;;;6.88;2.47;;;26.60;32.90;;;;;;5017747;28;20045;-48
2022/07/20 02:50:11;;;;;;;4.57;2.83;;;26.60;33.10;;;;;;5020687;28;20528;-49
2022/07/20 02:52:39;;;;;;;5.28;2.83;;;26.60;33.00;;;;;;5022411;28;20050;-47
2022/07/20 02:55:08;;;;;;;7.45;2.80;;;26.60;33.10;;;;;;5020151;28;20050;-49
2022/07/20 02:57:36;;;;;;;3.90;2.78;;;26.50;33.20;;;;;;5016267;28;20057;-48
2022/07/20 03:00:06;;;;;;;4.32;2.90;;;26.50;33.20;;;;;;5018884;28;20061;-53
2022/07/20 03:02:34;;;;;;;2.88;2.42;;;26.50;33.30;;;;;;5023918;28;20053;-49
2022/07/20 03:05:01;;;;;;;5.20;2.88;;;26.50;34.00;;;;;;5024523;28;20053;-48
2022/07/20 03:07:29;;;;;;;2.83;2.45;;;26.40;33.40;;;;;;5022313;28;20098;-49
2022/07/20 03:09:56;;;;;;;6.53;3.20;;;26.40;33.40;;;;;;5026179;28;20068;-49
2022/07/20 03:12:24;;;;;;;5.68;2.80;;;26.40;33.20;;;;;;5022239;28;20052;-52
2022/07/20 03:14:51;;;;;;;5.60;2.53;;;26.40;33.30;;;;;;5019625;28;20049;-48
2022/07/20 03:17:20;;;;;;;4.53;2.65;;;26.40;33.30;;;;;;5018853;28;20053;-52
2022/07/20 03:19:47;;;;;;;5.38;2.70;;;26.40;33.40;;;;;;5025604;28;20057;-50
2022/07/20 03:22:15;;;;;;;4.20;2.60;;;26.40;33.40;;;;;;5019890;28;20057;-50
2022/07/20 03:24:43;;;;;;;6.25;3.08;;;26.30;33.30;;;;;;5020566;28;20052;-47
2022/07/20 03:27:10;;;;;;;4.07;2.65;;;26.30;33.30;;;;;;5021954;28;20057;-48
2022/07/20 03:29:40;;;;;;;7.10;2.50;;;26.30;33.30;;;;;;5023473;28;20452;-47
2022/07/20 03:32:08;;;;;;;5.38;3.00;;;26.30;33.20;;;;;;5022996;28;20064;-49
2022/07/20 03:34:37;;;;;;;5.80;2.85;;;26.30;33.10;;;;;;5020487;28;20061;-48
2022/07/20 03:37:04;;;;;;;4.63;2.97;;;26.20;33.00;;;;;;5020573;28;20058;-51
2022/07/20 03:39:32;;;;;;;7.38;2.80;;;26.20;33.30;;;;;;5020485;28;20053;-48
2022/07/20 03:41:59;;;;;;;4.25;2.85;;;26.20;32.80;;;;;;5021734;28;20054;-51
2022/07/20 03:44:27;;;;;;;7.53;3.00;;;26.20;33.10;;;;;;5024863;28;20054;-50
2022/07/20 03:46:54;;;;;;;3.05;2.30;;;26.20;32.90;;;;;;5020938;28;20049;-50
2022/07/20 03:49:24;;;;;;;9.80;3.17;;;26.20;32.80;;;;;;5007622;28;20410;-51
2022/07/20 03:51:53;;;;;;;4.25;2.60;;;26.20;32.80;;;;;;4982408;28;20526;-48
2022/07/20 03:54:20;;;;;;;7.47;2.92;;;26.20;32.90;;;;;;4985799;28;20406;-51
2022/07/20 03:56:48;;;;;;;8.02;2.70;;;26.20;33.10;;;;;;4979652;28;20050;-49
2022/07/20 03:59:16;;;;;;;6.30;3.03;;;26.20;33.00;;;;;;4981566;28;20047;-50
2022/07/20 04:01:43;;;;;;;7.75;2.90;;;26.20;33.10;;;;;;4977522;28;20510;-49
2022/07/20 04:04:10;;;;;;;4.75;2.70;;;26.30;33.20;;;;;;4983561;28;20454;-51
2022/07/20 04:06:38;;;;;;;6.75;2.83;;;26.20;33.20;;;;;;4984722;28;20058;-50
2022/07/20 04:09:07;;;;;;;5.40;3.05;;;26.30;33.10;;;;;;4984405;28;20130;-53
2022/07/20 04:11:35;;;;;;;4.60;2.78;;;26.20;32.90;;;;;;4984763;28;20062;-49
2022/07/20 04:14:03;;;;;;;6.78;2.85;;;26.20;32.90;;;;;;4980853;28;20062;-53
2022/07/20 04:16:30;;;;;;;4.80;3.20;;;26.30;32.90;;;;;;4980123;28;20050;-53
2022/07/20 04:18:58;;;;;;;4.22;3.08;;;26.30;32.90;;;;;;4977721;28;20506;-48
2022/07/20 04:21:25;;;;;;;4.97;3.10;;;26.20;33.10;;;;;;4981407;28;20046;-50
2022/07/20 04:23:52;;;;;;;4.28;2.30;;;26.30;33.30;;;;;;4981969;28;20061;-49
2022/07/20 04:26:21;;;;;;;9.30;3.30;;;26.30;33.10;;;;;;4983006;28;20050;-49
2022/07/20 04:28:49;;;;;;;5.00;2.70;;;26.30;33.00;;;;;;4984993;28;20058;-53
2022/07/20 04:31:16;;;;;;;5.20;2.88;;;26.30;33.20;;;;;;4983690;28;20050;-47
2022/07/20 04:33:44;;;;;;;11.35;5.18;;;26.30;33.30;;;;;;4984118;28;20054;-49
2022/07/20 04:36:11;;;;;;;12.15;4.13;;;26.30;33.20;;;;;;4983142;28;20410;-46
2022/07/20 04:38:39;;;;;;;6.65;3.42;;;26.30;33.20;;;;;;4982345;28;20538;-49
2022/07/20 04:41:06;;;;;;;10.43;3.53;;;26.30;33.20;;;;;;4979204;28;20058;-50
2022/07/20 04:43:35;;;;;;;7.70;3.65;;;26.30;33.30;;;;;;4981023;28;20062;-47
2022/07/20 04:46:03;;;;;;;6.07;2.88;;;26.30;33.50;;;;;;4981297;28;20058;-49
2022/07/20 04:48:32;;;;;;;5.38;3.25;;;26.30;33.80;;;;;;4983358;28;20058;-49
2022/07/20 04:51:00;;;;;;;6.78;3.58;;;26.30;33.80;;;;;;4983491;28;20062;-47
2022/07/20 04:53:29;;;;;;;18.10;3.78;;;26.40;33.60;;;;;;4984037;28;20506;-46
2022/07/20 04:55:57;;;;;;;9.50;3.22;;;26.40;34.00;;;;;;4983401;28;20055;-51
2022/07/20 04:58:24;;;;;;;11.27;3.88;;;26.40;34.20;;;;;;4979988;28;20054;-48
2022/07/20 05:00:54;;;;;;;7.15;3.08;;;26.40;33.60;;;;;;4974461;28;20054;-48
2022/07/20 05:03:21;;;;;;;6.68;4.07;;;26.50;33.90;;;;;;4983470;28;20517;-47
2022/07/20 05:05:49;;;;;;;20.23;11.52;;;26.50;34.20;;;;;;4980644;28;20070;-52
2022/07/20 05:08:17;;;;;;;15.00;7.93;;;26.60;34.70;;;;;;4971206;28;20518;-47
2022/07/20 05:10:44;;;;;;;10.88;6.35;;;26.60;34.60;;;;;;4979420;28;20601;-53
2022/07/20 05:13:12;;;;;;;19.40;11.73;;;26.60;34.60;;;;;;4980608;28;20054;-50
2022/07/20 05:15:39;;;;;;;13.82;6.88;;;26.60;34.90;;;;;;4977304;28;20054;-47
2022/07/20 05:18:09;;;;;;;7.55;4.30;;;26.70;35.20;;;;;;4980332;28;20054;-50
2022/07/20 05:20:36;;;;;;;7.85;3.80;;;26.70;35.60;;;;;;4981527;28;20054;-49
2022/07/20 05:23:04;;;;;;;8.57;4.10;;;26.70;35.80;;;;;;4981336;28;20046;-53
2022/07/20 05:25:33;;;;;;;9.00;3.53;;;26.80;36.50;;;;;;4976989;28;20046;-48
2022/07/20 05:28:01;;;;;;;5.22;3.42;;;26.80;36.00;;;;;;4980022;28;20054;-49
2022/07/20 05:30:28;;;;;;;7.70;3.78;;;26.80;35.60;;;;;;4979547;28;20061;-53
2022/07/20 05:32:59;;;;;;;4.82;3.47;;;26.80;35.70;;;;;;4980275;28;20058;-49
2022/07/20 05:35:28;;;;;;;5.65;3.20;;;26.80;35.50;;;;;;4980881;28;20046;-47
2022/07/20 05:37:56;;;;;;;8.20;3.63;;;26.90;35.80;;;;;;4976839;28;20525;-48
2022/07/20 05:40:24;;;;;;;9.13;4.35;;;26.90;36.20;;;;;;4978939;28;20513;-48
2022/07/20 05:42:52;;;;;;;13.90;3.75;;;26.80;36.20;;;;;;4982437;28;20053;-51
2022/07/20 05:45:19;;;;;;;9.63;3.38;;;26.90;36.00;;;;;;4981269;28;20058;-50
2022/07/20 05:47:47;;;;;;;16.92;4.40;;;26.90;35.90;;;;;;4979107;28;20061;-50
2022/07/20 05:50:15;;;;;;;18.70;6.45;;;26.90;36.00;;;;;;4980249;28;20062;-50
2022/07/20 05:52:44;;;;;;;14.02;7.25;;;26.90;36.00;;;;;;4982740;28;20054;-52
2022/07/20 05:55:12;;;;;;;17.60;8.20;;;26.90;36.10;;;;;;4982624;28;20058;-52
2022/07/20 05:57:40;;;;;;;16.02;7.97;;;27.00;36.40;;;;;;4976879;28;20067;-54
2022/07/20 06:00:09;;;;;;;10.80;7.00;;;27.00;36.60;;;;;;4980713;28;20057;-48
2022/07/20 06:02:37;;;;;;;21.67;8.77;;;27.00;36.70;;;;;;4976480;28;20050;-48
2022/07/20 06:05:05;;;;;;;14.35;7.78;;;27.00;36.90;;;;;;4982061;28;20065;-48
2022/07/20 06:07:33;;;;;;;14.02;8.10;;;27.10;37.10;;;;;;4976812;28;20418;-46
2022/07/20 06:10:02;;;;;;;17.02;9.00;;;27.10;37.30;;;;;;4983199;28;20058;-46
2022/07/20 06:12:29;;;;;;;24.65;10.43;;;27.10;37.60;;;;;;4978827;28;20054;-50
2022/07/20 06:14:57;;;;;;;19.48;9.80;;;27.20;37.80;;;;;;4982380;28;20062;-48
2022/07/20 06:17:32;;;;;;;20.50;9.63;;;27.20;37.80;;;;;;4974981;28;20046;-51
2022/07/20 06:20:05;;;;;;;25.52;9.80;;;27.20;38.10;;;;;;4979878;28;20058;-52
2022/07/20 06:22:36;;;;;;;21.33;10.43;;;27.20;38.30;;;;;;4981557;28;20619;-51
2022/07/20 06:25:06;;;;;;;16.67;9.55;;;27.20;38.20;;;;;;4982557;28;20054;-48
2022/07/20 06:27:34;;;;;;;19.13;10.07;;;27.30;38.10;;;;;;4979155;28;20431;-47
2022/07/20 06:30:02;;;;;;;19.88;11.15;;;27.30;38.20;;;;;;4983147;28;20065;-46
2022/07/20 06:32:32;;;;;;;22.60;10.60;;;27.40;38.70;;;;;;4981162;28;20069;-49
2022/07/20 06:34:59;;;;;;;21.73;10.80;;;27.30;38.50;;;;;;4978340;28;20058;-50
2022/07/20 06:37:27;;;;;;;26.90;11.82;;;27.40;38.70;;;;;;4976700;28;20053;-52
2022/07/20 06:39:58;;;;;;;28.50;12.00;;;27.40;38.60;;;;;;4978111;28;20058;-53
2022/07/20 06:42:27;;;;;;;19.40;11.40;;;27.40;38.40;;;;;;4982185;28;20054;-48
2022/07/20 06:44:54;;;;;;;27.75;12.52;;;27.50;38.60;;;;;;4980667;28;20418;-50
2022/07/20 06:47:23;;;;;;;25.95;12.35;;;27.50;38.80;;;;;;4977851;28;20462;-53
2022/07/20 06:49:51;;;;;;;24.75;12.77;;;27.50;38.90;;;;;;4979388;28;20065;-52
2022/07/20 06:52:19;;;;;;;24.23;14.05;;;27.60;38.90;;;;;;4980689;28;20046;-54
2022/07/20 06:54:47;;;;;;;24.52;13.48;;;27.60;38.80;;;;;;4978690;28;20054;-46
2022/07/20 06:57:15;;;;;;;24.92;12.98;;;27.70;39.10;;;;;;4978183;28;20050;-51
2022/07/20 06:59:44;;;;;;;27.00;13.38;;;27.80;38.90;;;;;;4981833;28;20479;-48
2022/07/20 07:02:12;;;;;;;30.30;13.40;;;27.80;38.80;;;;;;4978358;28;20054;-48
2022/07/20 07:04:39;;;;;;;25.13;12.68;;;27.80;39.10;;;;;;4979491;28;20046;-50
2022/07/20 07:07:07;;;;;;;23.55;12.80;;;27.90;38.90;;;;;;4980165;28;20061;-51
2022/07/20 07:09:34;;;;;;;27.02;13.90;;;27.90;38.90;;;;;;4979128;28;20046;-50
2022/07/20 07:12:02;;;;;;;26.20;13.88;;;27.90;38.90;;;;;;4981446;28;20054;-53
2022/07/20 07:14:29;;;;;;;24.48;13.50;;;28.00;38.90;;;;;;4978798;28;20062;-48
2022/07/20 07:16:58;;;;;;;27.85;14.10;;;28.00;38.80;;;;;;4975357;28;20055;-49
2022/07/20 07:19:26;;;;;;;33.72;14.13;;;28.00;38.70;;;;;;4979734;28;20525;-50
2022/07/20 07:21:53;;;;;;;31.13;13.93;;;28.00;39.00;;;;;;4980605;28;20054;-46
2022/07/20 07:24:21;;;;;;;34.53;15.63;;;28.00;39.40;;;;;;4979981;28;21521;-54
2022/07/20 07:26:49;;;;;;;33.20;15.52;;;28.00;39.10;;;;;;4976642;28;20046;-57
2022/07/20 07:29:19;;;;;;;34.72;15.23;;;28.00;39.30;;;;;;4975487;28;20058;-53
2022/07/20 07:31:47;;;;;;;29.08;15.50;;;28.00;39.50;;;;;;4976918;28;20059;-56
2022/07/20 07:34:16;;;;;;;31.65;16.35;;;28.10;39.90;;;;;;4975475;28;20506;-53
2022/07/20 07:36:44;;;;;;;42.30;16.48;;;28.10;39.90;;;;;;4976894;28;20482;-60
2022/07/20 07:39:12;;;;;;;27.58;16.10;;;28.10;40.00;;;;;;4972098;28;21047;-50
2022/07/20 07:41:39;;;;;;;28.67;15.50;;;28.20;40.20;;;;;;4977439;28;20065;-47
2022/07/20 07:44:07;;;;;;;32.33;16.48;;;28.30;40.40;;;;;;4978343;28;20073;-48
2022/07/20 07:46:34;;;;;;;29.23;15.55;;;28.30;40.50;;;;;;4975269;28;20059;-49
2022/07/20 07:49:02;;;;;;;33.38;17.05;;;28.40;40.70;;;;;;4980115;28;20062;-50
2022/07/20 07:51:31;;;;;;;37.00;17.88;;;28.40;41.00;;;;;;4981183;28;20491;-46
2022/07/20 07:53:58;;;;;;;31.17;17.98;;;28.50;40.70;;;;;;4985577;28;20069;-47
2022/07/20 07:56:26;;;;;;;30.00;17.75;;;28.50;40.50;;;;;;4982179;28;20061;-50
2022/07/20 07:58:54;;;;;;;29.50;17.88;;;28.50;41.00;;;;;;4983801;28;20061;-55
2022/07/20 08:01:21;;;;;;;45.13;20.48;;;28.60;41.00;;;;;;4980608;28;20050;-49
2022/07/20 08:03:49;;;;;;;38.53;20.80;;;28.60;41.10;;;;;;4984305;28;20046;-46
2022/07/20 08:06:16;;;;;;;39.28;19.98;;;28.60;41.10;;;;;;4982264;28;20509;-48
2022/07/20 08:08:45;;;;;;;35.15;20.15;;;28.70;40.90;;;;;;4984624;28;20050;-49
2022/07/20 08:11:13;;;;;;;31.25;19.35;;;28.80;40.80;;;;;;4984965;28;20057;-48
2022/07/20 08:13:40;;;;;;;29.30;17.65;;;28.80;40.90;;;;;;4985443;28;20396;-55
2022/07/20 08:16:08;;;;;;;33.47;18.17;;;28.90;40.60;;;;;;4979999;28;20058;-49
2022/07/20 08:18:35;;;;;;;35.45;19.02;;;28.90;40.30;;;;;;4982560;28;20054;-49
2022/07/20 08:21:03;;;;;;;28.45;17.35;;;28.90;40.40;;;;;;4985649;28;20070;-56
2022/07/20 08:23:30;;;;;;;39.33;18.15;;;28.90;40.80;;;;;;4983811;28;20058;-48
2022/07/20 08:25:59;;;;;;;30.00;17.58;;;29.00;40.80;;;;;;4982395;28;20050;-48
2022/07/20 08:28:27;;;;;;;29.42;17.55;;;29.00;40.20;;;;;;4983909;28;20069;-46
2022/07/20 08:30:54;;;;;;;27.88;16.83;;;29.00;40.00;;;;;;4983651;28;20058;-47
2022/07/20 08:33:22;;;;;;;35.97;17.55;;;29.10;40.10;;;;;;4983595;28;20058;-49
2022/07/20 08:35:50;;;;;;;32.40;17.65;;;29.10;39.90;;;;;;4978101;28;20747;-51
2022/07/20 08:38:18;;;;;;;29.17;16.60;;;29.10;40.40;;;;;;4978691;28;20050;-56
2022/07/20 08:40:46;;;;;;;34.50;16.88;;;29.10;40.30;;;;;;4983821;28;21578;-51
2022/07/20 08:43:16;;;;;;;28.25;17.60;;;29.20;40.30;;;;;;4981088;28;20050;-52
2022/07/20 08:45:46;;;;;;;29.80;17.38;;;29.20;39.80;;;;;;4978170;28;20441;-48
2022/07/20 08:48:18;;;;;;;33.58;17.30;;;29.20;40.00;;;;;;4979205;28;20430;-46
2022/07/20 08:50:47;;;;;;;29.90;16.15;;;29.20;40.60;;;;;;4984136;28;20422;-50
2022/07/20 08:53:14;;;;;;;27.00;16.85;;;29.20;40.40;;;;;;4982229;28;20065;-51
2022/07/20 08:55:42;;;;;;;24.08;16.27;;;29.20;40.00;;;;;;4980450;28;20639;-53
2022/07/20 08:58:10;;;;;;;30.73;17.60;;;29.20;39.90;;;;;;4979044;28;20053;-48
2022/07/20 09:00:39;;;;;;;34.08;16.77;;;29.20;39.60;;;;;;4974598;28;20511;-57
2022/07/20 09:03:09;;;;;;;36.75;18.05;;;29.20;40.10;;;;;;4977719;28;20065;-56
2022/07/20 09:05:38;;;;;;;38.83;17.55;;;29.20;39.70;;;;;;4976910;28;20093;-51
2022/07/20 09:08:08;;;;;;;27.23;16.75;;;29.20;39.90;;;;;;4979910;28;20053;-48
2022/07/20 09:10:37;;;;;;;30.92;16.73;;;29.10;39.90;;;;;;4982107;28;20065;-46
2022/07/20 09:13:07;;;;;;;32.95;17.90;;;29.20;40.20;;;;;;4982678;28;20054;-50
2022/07/20 09:15:41;;;;;;;30.88;16.80;;;29.10;39.50;;;;;;4983932;28;20057;-59
2022/07/20 09:18:14;;;;;;;35.38;18.05;;;29.10;39.60;;;;;;4983544;28;20065;-52
2022/07/20 09:20:45;;;;;;;31.00;16.10;;;29.10;39.60;;;;;;4984294;28;20063;-56
2022/07/20 09:23:17;;;;;;;25.27;16.45;;;29.10;40.10;;;;;;4983928;28;20058;-49
2022/07/20 09:25:59;;;;;;;35.17;16.67;;;29.10;39.80;;;;;;4981209;28;20418;-54
2022/07/20 09:28:38;;;;;;;32.58;16.70;;;29.10;39.60;;;;;;4981076;28;20050;-54
2022/07/20 09:31:11;;;;;;;28.55;16.67;;;29.20;39.70;;;;;;4980698;28;20069;-57
2022/07/20 09:33:40;;;;;;;;;;;29.20;39.80;;;;;;4982829;28;20054;-50
2022/07/20 09:36:08;;;;;;;32.08;16.63;;;29.30;39.40;;;;;;4984328;28;20401;-48
2022/07/20 09:38:37;;;;;;;31.17;15.57;;;29.30;39.40;;;;;;4981611;28;20415;-54
2022/07/20 09:41:07;;;;;;;27.40;16.08;;;29.40;39.60;;;;;;4983089;28;20063;-51
2022/07/20 09:43:37;;;;;;;32.67;15.75;;;29.40;39.40;;;;;;4983282;28;20065;-53
2022/07/20 09:46:13;;;;;;;31.23;14.20;;;29.50;39.50;;;;;;4982630;28;20062;-59
2022/07/20 09:48:43;;;;;;;29.50;15.48;;;29.60;39.30;;;;;;4982403;28;20042;-53
2022/07/20 09:51:21;;;;;;;28.83;14.15;;;29.60;38.40;;;;;;4983685;28;20418;-49
2022/07/20 09:53:49;;;;;;;26.88;16.40;;;29.60;39.00;;;;;;4983206;28;20077;-54
2022/07/20 09:56:18;;;;;;;25.08;14.85;;;29.60;38.80;;;;;;4982749;28;20057;-51
2022/07/20 10:12:17;;;;;;;23.23;14.18;;;30.10;37.50;;;;;;4988685;28;20045;-49
2022/07/20 10:14:49;;;;;;;23.25;13.63;;;30.10;37.90;;;;;;4982902;28;20058;-48
2022/07/20 10:17:17;;;;;;;25.50;13.73;;;30.20;38.40;;;;;;4978189;28;20050;-54
2022/07/20 10:19:46;;;;;;;26.63;13.45;;;30.20;38.20;;;;;;4983292;28;20118;-51
2022/07/20 10:22:15;;;;;;;30.05;12.73;;;30.30;37.60;;;;;;4983196;28;20058;-50
2022/07/20 10:24:44;;;;;;;24.85;13.95;;;30.30;37.70;;;;;;4981426;28;20491;-50
2022/07/20 10:27:28;;;;;;;19.20;12.55;;;30.30;37.20;;;;;;4979960;28;20054;-56
2022/07/20 10:29:57;;;;;;;26.27;13.27;;;30.30;37.50;;;;;;4982646;28;20107;-48
2022/07/20 10:32:28;;;;;;;31.30;13.95;;;30.40;38.10;;;;;;4982088;28;20410;-51
2022/07/20 10:34:57;;;;;;;23.38;12.35;;;30.40;37.60;;;;;;4982093;28;20058;-48
2022/07/20 10:37:30;;;;;;;25.83;12.52;;;30.50;37.70;;;;;;4980067;28;20050;-56
2022/07/20 10:40:07;;;;;;;21.10;11.73;;;30.50;37.30;;;;;;4983196;28;20057;-60
2022/07/20 10:42:37;;;;;;;25.30;12.15;;;30.50;36.70;;;;;;4981121;28;20521;-52
2022/07/20 10:45:31;;;;;;;23.50;12.27;;;30.60;36.80;;;;;;4982737;28;20058;-63
2022/07/20 10:48:02;;;;;;;18.80;12.53;;;30.50;36.20;;;;;;4981770;28;20050;-55
2022/07/20 10:50:34;;;;;;;21.70;12.15;;;30.50;36.60;;;;;;4982125;28;20657;-48
2022/07/20 10:53:36;;;;;;;23.10;12.43;;;30.50;36.90;;;;;;4982032;28;20054;-54
2022/07/20 10:56:06;;;;;;;20.10;11.40;;;30.50;37.20;;;;;;4978773;28;20533;-50
2022/07/20 10:58:37;;;;;;;20.90;12.70;;;30.50;37.30;;;;;;4979300;28;20499;-46
2022/07/20 11:01:07;;;;;;;25.33;14.25;;;30.50;37.30;;;;;;4981776;28;20054;-49
2022/07/20 11:03:38;;;;;;;23.60;12.07;;;30.50;36.80;;;;;;4982034;28;20062;-47
2022/07/20 11:06:08;;;;;;;23.42;13.02;;;30.50;36.40;;;;;;4979002;28;20053;-60
2022/07/20 11:08:36;;;;;;;22.30;12.65;;;30.50;35.80;;;;;;4979234;28;20050;-46
2022/07/20 11:11:04;;;;;;;25.05;12.70;;;30.50;36.20;;;;;;4981040;28;20070;-65
2022/07/20 11:13:32;;;;;;;23.00;12.20;;;30.50;36.30;;;;;;4979814;28;20518;-48
2022/07/20 11:16:03;;;;;;;23.52;12.93;;;30.50;36.90;;;;;;4971746;28;20418;-50
2022/07/20 11:18:32;;;;;;;22.95;12.88;;;30.50;37.50;;;;;;4975212;28;20510;-61
2022/07/20 11:21:01;;;;;;;21.75;12.98;;;30.50;36.50;;;;;;4981485;28;20509;-56
2022/07/20 11:23:38;;;;;;;19.95;11.85;;;30.40;36.30;;;;;;4982955;28;20061;-53
2022/07/20 11:26:07;;;;;;;23.63;13.82;;;30.50;37.00;;;;;;4984061;28;20419;-56
2022/07/20 11:28:36;;;;;;;27.13;12.93;;;30.50;37.50;;;;;;4982047;28;20046;-50
2022/07/20 11:31:07;;;;;;;24.38;13.48;;;30.50;38.40;;;;;;4983146;28;20511;-63
2022/07/20 11:33:37;;;;;;;21.50;13.25;;;30.50;36.50;;;;;;4983391;28;20054;-64
2022/07/20 11:36:07;;;;;;;30.05;15.02;;;30.50;37.20;;;;;;4980133;28;20116;-57
2022/07/20 11:38:36;;;;;;;24.52;13.90;;;30.50;37.00;;;;;;4983627;28;20054;-48
2022/07/20 11:41:07;;;;;;;21.90;13.20;;;30.50;37.10;;;;;;4985881;28;20493;-50
2022/07/20 11:43:35;;;;;;;26.63;13.23;;;30.50;37.90;;;;;;4985665;28;20403;-51
2022/07/20 11:46:12;;;;;;;25.27;13.70;;;30.60;37.70;;;;;;4980003;28;20062;-55
2022/07/20 11:48:39;;;;;;;21.33;12.95;;;30.60;37.00;;;;;;4984770;28;20054;-53
2022/07/20 11:51:07;;;;;;;25.13;13.38;;;30.60;37.50;;;;;;4983793;28;20061;-53
2022/07/20 11:53:37;;;;;;;23.50;13.43;;;30.60;37.20;;;;;;4977744;28;20054;-53
2022/07/20 11:56:10;;;;;;;25.13;13.85;;;30.60;37.10;;;;;;4976171;28;20053;-65
2022/07/20 11:58:39;;;;;;;26.67;13.73;;;30.70;36.70;;;;;;4975712;28;20053;-53
2022/07/20 12:01:08;;;;;;;25.48;14.50;;;30.60;36.50;;;;;;4975211;28;20054;-66
2022/07/20 12:03:39;;;;;;;27.77;14.23;;;30.60;36.80;;;;;;4984426;28;20540;-63
2022/07/20 12:06:08;;;;;;;23.75;13.55;;;30.50;36.10;;;;;;4977292;28;20521;-47
2022/07/20 12:08:36;;;;;;;20.88;12.57;;;30.50;36.50;;;;;;4984301;28;20410;-49
2022/07/20 12:11:05;;;;;;;26.50;12.65;;;30.50;36.50;;;;;;4985445;28;20061;-57
2022/07/20 12:13:43;;;;;;;22.17;13.13;;;30.50;36.70;;;;;;4984962;28;20054;-56
2022/07/20 12:16:12;;;;;;;28.77;12.25;;;30.50;37.30;;;;;;4985655;28;20065;-47
2022/07/20 12:18:50;;;;;;;20.63;13.20;;;30.60;37.50;;;;;;4983444;28;20050;-54
2022/07/20 12:21:22;;;;;;;24.35;13.25;;;30.70;37.60;;;;;;4984976;28;20418;-62
2022/07/20 12:23:51;;;;;;;20.02;12.60;;;30.70;36.70;;;;;;4985732;28;20414;-58
2022/07/20 12:26:24;;;;;;;26.08;13.05;;;30.70;36.10;;;;;;4985257;28;20050;-57
2022/07/20 12:28:52;;;;;;;26.60;13.05;;;30.70;36.10;;;;;;4984770;28;20054;-57
2022/07/20 12:31:22;;;;;;;20.40;12.32;;;30.70;36.50;;;;;;4984642;28;20065;-56
2022/07/20 12:34:08;;;;;;;23.58;12.73;;;30.70;35.60;;;;;;4983484;28;20058;-59
2022/07/20 12:36:42;;;;;;;24.25;12.52;;;30.70;35.60;;;;;;4985402;28;20073;-49
2022/07/20 12:39:12;;;;;;;15.40;10.65;;;30.80;36.50;;;;;;4984017;28;20046;-50
2022/07/20 12:41:41;;;;;;;18.80;12.20;;;30.80;36.70;;;;;;4985301;28;20061;-59
2022/07/20 12:44:25;;;;;;;33.60;13.50;;;30.90;36.10;;;;;;4984450;28;20065;-53
2022/07/20 12:46:53;;;;;;;26.40;12.80;;;30.90;36.20;;;;;;4984560;28;20062;-48
2022/07/20 12:49:22;;;;;;;20.55;12.93;;;30.90;36.30;;;;;;4984424;28;20050;-56
2022/07/20 12:51:52;;;;;;;23.15;12.70;;;31.00;36.10;;;;;;4984708;28;20422;-54
2022/07/20 12:54:19;;;;;;;21.42;12.90;;;31.00;36.70;;;;;;4984900;28;20069;-56
2022/07/20 12:56:47;;;;;;;32.80;12.73;;;31.10;36.20;;;;;;4984353;28;20062;-50
2022/07/20 12:59:15;;;;;;;20.33;12.27;;;31.10;36.60;;;;;;4984239;28;20057;-54
2022/07/20 13:01:48;;;;;;;27.67;13.68;;;31.20;36.50;;;;;;4983539;28;20085;-55
2022/07/20 13:04:17;;;;;;;25.75;12.27;;;31.20;36.30;;;;;;4984337;28;20062;-55